createdAt,value
2022-08-25T00:02:07.552Z,100721.59
2022-08-25T00:04:38.050Z,100718.28
2022-08-25T00:07:06.744Z,100728.94
2022-08-25T00:09:35.329Z,100726.50
2022-08-25T00:12:04.987Z,100727.44
2022-08-25T00:14:37.413Z,100722.13
2022-08-25T00:17:06.927Z,100716.59
2022-08-25T00:19:37.930Z,100719.16
2022-08-25T00:22:07.738Z,100712.44
2022-08-25T00:24:36.067Z,100712.44
2022-08-25T00:27:04.598Z,100697.84
2022-08-25T00:29:34.024Z,100699.31
2022-08-25T00:32:01.868Z,100696.72
2022-08-25T00:34:35.493Z,100690.13
2022-08-25T00:37:07.327Z,100695.63
2022-08-25T00:39:35.197Z,100692.06
2022-08-25T00:42:04.298Z,100699.41
2022-08-25T00:44:35.645Z,100696.94
2022-08-25T00:47:05.243Z,100688.94
2022-08-25T00:49:42.054Z,100693.66
2022-08-25T00:52:16.554Z,100686.63
2022-08-25T00:55:06.230Z,100689.38
2022-08-25T00:58:17.008Z,100684.50
2022-08-25T01:00:49.498Z,100689.31
2022-08-25T01:03:19.201Z,100683.56
2022-08-25T01:05:48.406Z,100683.78
2022-08-25T01:08:19.605Z,100686.00
2022-08-25T01:10:49.323Z,100677.81
2022-08-25T01:13:21.378Z,100678.50
2022-08-25T01:15:52.941Z,100682.13
2022-08-25T01:18:21.878Z,100673.41
2022-08-25T01:20:57.948Z,100677.56
2022-08-25T01:23:27.129Z,100680.31
2022-08-25T01:26:21.134Z,100680.50
2022-08-25T01:29:15.501Z,100678.25
2022-08-25T01:31:43.518Z,100688.78
2022-08-25T01:34:12.465Z,100683.63
2022-08-25T01:36:42.163Z,100684.13
2022-08-25T01:39:11.667Z,100686.00
2022-08-25T01:42:05.497Z,100691.41
2022-08-25T01:44:35.976Z,100683.91
2022-08-25T01:47:06.085Z,100696.50
2022-08-25T01:49:34.850Z,100689.69
2022-08-25T01:52:20.195Z,100691.22
2022-08-25T01:54:49.599Z,100687.06
2022-08-25T01:57:17.606Z,100691.16
2022-08-25T01:59:45.815Z,100695.66
2022-08-25T02:02:13.890Z,100690.41
2022-08-25T02:04:44.429Z,100692.97
2022-08-25T02:07:12.298Z,100687.31
2022-08-25T02:09:40.428Z,100687.69
2022-08-25T02:12:12.305Z,100683.41
2022-08-25T02:14:40.058Z,100681.94
2022-08-25T02:17:09.829Z,100685.56
2022-08-25T02:19:37.722Z,100684.34
2022-08-25T02:22:05.917Z,100679.13
2022-08-25T02:24:34.941Z,100681.63
2022-08-25T02:27:04.075Z,100686.44
2022-08-25T02:29:32.437Z,100678.78
2022-08-25T02:32:00.536Z,100677.34
2022-08-25T02:34:28.344Z,100685.91
2022-08-25T02:36:56.034Z,100686.75
2022-08-25T02:39:23.873Z,100682.09
2022-08-25T02:41:51.610Z,100682.53
2022-08-25T02:44:19.304Z,100692.88
2022-08-25T02:46:47.196Z,100686.59
2022-08-25T02:49:14.822Z,100691.50
2022-08-25T02:51:42.967Z,100685.09
2022-08-25T02:54:11.130Z,100689.13
2022-08-25T02:56:38.878Z,100686.59
2022-08-25T02:59:06.953Z,100687.44
2022-08-25T03:01:34.910Z,100681.34
2022-08-25T03:04:02.987Z,100677.09
2022-08-25T03:06:31.322Z,100683.72
2022-08-25T03:08:59.485Z,100678.38
2022-08-25T03:11:27.164Z,100681.25
2022-08-25T03:13:56.441Z,100679.56
2022-08-25T03:16:27.634Z,100681.03
2022-08-25T03:18:56.289Z,100684.84
2022-08-25T03:21:25.838Z,100679.22
2022-08-25T03:23:53.567Z,100678.38
2022-08-25T03:26:40.249Z,100684.88
2022-08-25T03:29:08.631Z,100679.16
2022-08-25T03:31:36.816Z,100677.00
2022-08-25T03:34:05.448Z,100669.31
2022-08-25T03:36:33.407Z,100673.59
2022-08-25T03:39:01.130Z,100674.03
2022-08-25T03:41:32.517Z,100686.59
2022-08-25T03:44:02.022Z,100689.47
2022-08-25T03:46:34.358Z,100678.78
2022-08-25T03:49:04.532Z,100682.53
2022-08-25T03:51:36.172Z,100680.19
2022-08-25T03:54:05.035Z,100686.16
2022-08-25T03:56:33.053Z,100684.00
2022-08-25T03:59:01.089Z,100679.31
2022-08-25T04:01:29.251Z,100679.06
2022-08-25T04:03:57.114Z,100673.94
2022-08-25T04:06:24.794Z,100671.81
2022-08-25T04:08:52.911Z,100674.03
2022-08-25T04:11:23.041Z,100671.38
2022-08-25T04:13:51.948Z,100682.41
2022-08-25T04:16:26.598Z,100679.75
2022-08-25T04:18:56.115Z,100666.84
2022-08-25T04:21:25.433Z,100666.91
2022-08-25T04:23:55.278Z,100663.38
2022-08-25T04:26:35.385Z,100667.63
2022-08-25T04:29:05.826Z,100664.38
2022-08-25T04:31:34.229Z,100667.41
2022-08-25T04:34:14.766Z,100669.75
2022-08-25T04:36:55.535Z,100660.72
2022-08-25T04:39:23.284Z,100664.41
2022-08-25T04:41:51.473Z,100663.94
2022-08-25T04:44:19.341Z,100667.06
2022-08-25T04:46:47.234Z,100663.19
2022-08-25T04:49:15.112Z,100662.75
2022-08-25T04:51:43.477Z,100659.09
2022-08-25T04:54:16.969Z,100667.13
2022-08-25T04:56:45.398Z,100660.31
2022-08-25T04:59:14.921Z,100655.72
2022-08-25T05:01:43.745Z,100658.25
2022-08-25T05:04:28.230Z,100659.84
2022-08-25T05:06:58.310Z,100657.41
2022-08-25T05:09:27.457Z,100655.00
2022-08-25T05:11:55.882Z,100661.31
2022-08-25T05:14:26.145Z,100658.13
2022-08-25T05:16:56.326Z,100655.91
2022-08-25T05:19:24.629Z,100671.06
2022-08-25T05:21:52.733Z,100664.88
2022-08-25T05:24:22.190Z,100659.41
2022-08-25T05:26:50.447Z,100662.06
2022-08-25T05:29:18.376Z,100658.75
2022-08-25T05:31:50.405Z,100655.06
2022-08-25T05:34:19.723Z,100655.91
2022-08-25T05:36:48.735Z,100658.19
2022-08-25T05:39:16.631Z,100654.75
2022-08-25T05:41:44.422Z,100648.69
2022-08-25T05:44:12.924Z,100649.56
2022-08-25T05:46:40.827Z,100654.94
2022-08-25T05:49:08.473Z,100649.66
2022-08-25T05:51:36.390Z,100658.47
2022-08-25T05:54:04.093Z,100659.03
2022-08-25T05:56:32.474Z,100655.72
2022-08-25T05:59:00.354Z,100653.50
2022-08-25T06:01:48.113Z,100664.53
2022-08-25T06:04:20.363Z,100664.91
2022-08-25T06:06:48.833Z,100663.88
2022-08-25T06:09:16.610Z,100659.38
2022-08-25T06:11:44.893Z,100664.19
2022-08-25T06:14:12.568Z,100665.63
2022-08-25T06:16:40.903Z,100665.72
2022-08-25T06:19:10.501Z,100666.88
2022-08-25T06:21:42.072Z,100667.75
2022-08-25T06:24:15.172Z,100674.22
2022-08-25T06:26:44.231Z,100673.13
2022-08-25T06:29:14.172Z,100677.22
2022-08-25T06:31:42.853Z,100675.75
2022-08-25T06:34:11.360Z,100670.50
2022-08-25T06:36:39.696Z,100669.94
2022-08-25T06:39:07.725Z,100676.97
2022-08-25T06:41:38.978Z,100677.03
2022-08-25T06:44:07.101Z,100676.72
2022-08-25T06:46:36.530Z,100677.97
2022-08-25T06:49:06.927Z,100684.94
2022-08-25T06:51:38.158Z,100681.56
2022-08-25T06:54:10.223Z,100683.13
2022-08-25T06:56:40.045Z,100682.94
2022-08-25T06:59:09.076Z,100681.09
2022-08-25T07:01:37.866Z,100686.56
2022-08-25T07:04:11.738Z,100685.97
2022-08-25T07:06:42.845Z,100682.31
2022-08-25T07:09:12.696Z,100687.47
2022-08-25T07:11:42.166Z,100683.69
2022-08-25T07:14:12.426Z,100679.28
2022-08-25T07:16:46.011Z,100685.13
2022-08-25T07:19:20.706Z,100687.22
2022-08-25T07:21:52.434Z,100691.19
2022-08-25T07:24:20.800Z,100698.22
2022-08-25T07:26:49.051Z,100704.72
2022-08-25T07:29:31.976Z,100703.13
2022-08-25T07:32:05.216Z,100697.16
2022-08-25T07:34:52.799Z,100706.09
2022-08-25T07:37:47.523Z,100700.22
2022-08-25T07:40:17.598Z,100707.94
2022-08-25T07:42:46.078Z,100706.28
2022-08-25T07:45:15.511Z,100701.50
2022-08-25T07:47:45.166Z,100705.13
2022-08-25T07:50:14.644Z,100708.78
2022-08-25T07:52:42.849Z,100711.31
2022-08-25T07:55:11.342Z,100711.03
2022-08-25T07:57:42.498Z,100705.69
2022-08-25T08:00:13.813Z,100712.63
2022-08-25T08:02:42.761Z,100715.88
2022-08-25T08:05:12.523Z,100711.31
2022-08-25T08:07:43.163Z,100705.28
2022-08-25T08:10:48.190Z,100710.03
2022-08-25T08:13:03.286Z,100701.84
2022-08-25T08:15:31.120Z,100701.22
2022-08-25T08:18:00.406Z,100700.94
2022-08-25T08:20:29.096Z,100704.81
2022-08-25T08:22:56.977Z,100708.69
2022-08-25T08:25:26.631Z,100706.47
2022-08-25T08:27:56.363Z,100707.56
2022-08-25T08:30:26.165Z,100704.81
2022-08-25T08:33:11.490Z,100701.94
2022-08-25T08:35:44.005Z,100697.50
2022-08-25T08:38:18.420Z,100697.13
2022-08-25T08:41:40.082Z,100694.94
2022-08-25T08:44:42.403Z,100694.94
2022-08-25T08:47:34.881Z,100698.09
2022-08-25T08:50:28.013Z,100701.25
2022-08-25T08:53:15.157Z,56657.03
2022-08-25T08:56:12.470Z,56657.03
2022-08-25T08:58:43.423Z,56657.03
2022-08-25T09:01:24.583Z,56657.03
2022-08-25T09:04:04.950Z,56657.03
2022-08-25T09:06:45.195Z,56657.03
2022-08-25T09:09:20.396Z,56657.03
2022-08-25T09:11:51.095Z,56657.03
2022-08-25T09:14:41.991Z,56657.03
2022-08-25T09:17:17.308Z,56657.03
2022-08-25T09:19:54.253Z,100704.06
2022-08-25T09:22:43.106Z,100673.59
2022-08-25T09:28:41.812Z,100675.09
2022-08-25T09:31:40.390Z,100679.38
2022-08-25T09:34:15.608Z,100671.38
2022-08-25T09:36:45.403Z,56657.03
2022-08-25T09:39:12.999Z,56657.03
2022-08-25T09:41:51.545Z,56657.03
2022-08-25T09:44:45.967Z,56657.03
2022-08-25T09:47:28.003Z,56657.03
2022-08-25T09:50:01.625Z,56657.03
2022-08-25T09:52:41.827Z,56657.03
2022-08-25T09:55:13.593Z,56657.03
2022-08-25T09:57:53.177Z,56657.03
2022-08-25T10:00:23.573Z,56657.03
2022-08-25T10:03:22.639Z,56657.03
2022-08-25T10:06:13.658Z,56657.03
2022-08-25T10:08:44.383Z,56657.03
2022-08-25T10:11:29.044Z,100630.59
2022-08-25T10:14:14.184Z,100623.19
2022-08-25T10:16:42.544Z,100626.78
2022-08-25T10:19:35.130Z,100615.53
2022-08-25T10:22:32.218Z,100605.59
2022-08-25T10:25:01.491Z,100605.09
2022-08-25T10:27:53.794Z,100612.81
2022-08-25T10:30:36.236Z,100614.06
2022-08-25T10:33:22.251Z,100600.84
2022-08-25T10:36:11.631Z,100598.41
2022-08-25T10:39:01.492Z,100594.63
2022-08-25T10:41:47.565Z,100585.28
2022-08-25T10:44:51.674Z,100590.69
2022-08-25T10:47:37.850Z,100594.41
2022-08-25T10:50:27.230Z,100589.72
2022-08-25T10:53:28.148Z,100584.69
2022-08-25T10:56:17.284Z,100578.13
2022-08-25T10:58:54.425Z,100571.59
2022-08-25T11:01:38.967Z,100568.41
2022-08-25T11:04:15.029Z,100574.13
2022-08-25T11:06:57.179Z,100566.97
2022-08-25T11:09:36.471Z,100565.69
2022-08-25T11:12:16.939Z,100553.22
2022-08-25T11:14:56.295Z,100563.72
2022-08-25T11:17:27.201Z,100561.31
2022-08-25T11:20:00.903Z,100556.19
2022-08-25T11:22:42.376Z,100556.19
2022-08-25T11:25:49.314Z,100541.97
2022-08-25T11:28:30.658Z,100548.97
2022-08-25T11:31:00.830Z,100533.47
2022-08-25T11:33:30.637Z,100537.06
2022-08-25T11:36:11.375Z,100531.88
2022-08-25T11:39:04.953Z,100533.97
2022-08-25T11:41:35.917Z,100532.81
2022-08-25T11:44:25.530Z,100538.22
2022-08-25T11:47:06.496Z,100527.84
2022-08-25T11:49:54.653Z,100543.38
2022-08-25T11:52:34.700Z,100537.16
2022-08-25T11:55:17.921Z,100546.94
2022-08-25T11:57:53.999Z,100545.13
2022-08-25T12:00:43.589Z,100541.81
2022-08-25T12:03:34.651Z,100538.84
2022-08-25T12:06:29.135Z,100542.91
2022-08-25T12:09:03.678Z,100530.13
2022-08-25T12:11:48.508Z,100528.94
2022-08-25T12:14:20.473Z,100537.63
2022-08-25T12:17:00.251Z,100525.97
2022-08-25T12:19:38.124Z,100535.94
2022-08-25T12:22:08.931Z,100537.63
2022-08-25T12:24:47.863Z,100536.44
2022-08-25T12:27:41.510Z,100525.56
2022-08-25T12:30:18.674Z,100527.50
2022-08-25T12:33:01.219Z,100531.00
2022-08-25T12:35:59.311Z,100526.00
2022-08-25T12:38:30.423Z,100522.66
2022-08-25T12:41:24.335Z,100522.91
2022-08-25T12:44:08.870Z,100522.97
2022-08-25T12:46:39.404Z,100516.19
2022-08-25T12:49:29.973Z,100522.72
2022-08-25T12:52:22.459Z,100524.97
2022-08-25T12:55:03.582Z,100508.88
2022-08-25T12:57:45.936Z,100515.41
2022-08-25T13:00:45.757Z,100512.84
2022-08-25T13:03:45.212Z,100500.81
2022-08-25T13:06:25.873Z,100493.78
2022-08-25T13:08:53.551Z,100499.13
2022-08-25T13:12:03.001Z,100503.66
2022-08-25T13:14:37.762Z,100502.47
2022-08-25T13:17:06.830Z,100502.03
2022-08-25T13:19:37.937Z,100496.59
2022-08-25T13:22:16.017Z,100496.09
2022-08-25T13:24:50.656Z,100497.91
2022-08-25T13:27:37.480Z,100498.16
2022-08-25T13:30:06.309Z,100499.00
2022-08-25T13:32:38.898Z,100500.53
2022-08-25T13:35:32.399Z,100499.69
2022-08-25T13:38:20.961Z,100508.00
2022-08-25T13:40:49.083Z,100501.00
2022-08-25T13:43:17.346Z,100495.44
2022-08-25T13:45:50.428Z,100489.16
2022-08-25T13:48:33.078Z,100491.56
2022-08-25T13:51:21.511Z,100487.63
2022-08-25T13:54:08.588Z,100496.06
2022-08-25T13:56:42.092Z,100490.25
2022-08-25T13:59:40.037Z,100486.50
2022-08-25T14:02:15.282Z,100483.53
2022-08-25T14:04:51.156Z,100487.72
2022-08-25T14:07:22.862Z,100482.78
2022-08-25T14:09:58.748Z,100478.03
2022-08-25T14:12:35.714Z,100478.94
2022-08-25T14:15:26.556Z,100477.91
2022-08-25T14:18:29.767Z,100474.53
2022-08-25T14:20:58.785Z,100472.34
2022-08-25T14:23:30.678Z,100477.56
2022-08-25T14:25:59.443Z,100465.63
2022-08-25T14:28:30.432Z,100468.41
2022-08-25T14:31:27.730Z,100462.28
2022-08-25T14:34:03.346Z,100464.53
2022-08-25T14:36:33.139Z,100464.66
2022-08-25T14:39:05.889Z,100466.63
2022-08-25T14:41:38.873Z,100463.44
2022-08-25T14:44:07.965Z,100468.78
2022-08-25T14:46:45.702Z,100471.59
2022-08-25T14:49:24.917Z,100467.88
2022-08-25T14:51:53.463Z,100464.50
2022-08-25T14:54:26.621Z,100460.94
2022-08-25T14:56:55.966Z,100458.63
2022-08-25T14:59:23.872Z,100462.56
2022-08-25T15:01:51.710Z,100456.69
2022-08-25T15:04:29.056Z,100456.41
2022-08-25T15:07:00.106Z,100457.06
2022-08-25T15:09:33.666Z,100460.34
2022-08-25T15:12:01.835Z,100458.09
2022-08-25T15:14:33.332Z,100463.78
2022-08-25T15:17:03.392Z,100455.94
2022-08-25T15:19:31.446Z,100466.47
2022-08-25T15:21:59.243Z,100465.81
2022-08-25T15:24:28.410Z,100464.13
2022-08-25T15:26:59.159Z,100471.56
2022-08-25T15:29:30.105Z,100471.84
2022-08-25T15:32:00.394Z,100466.97
2022-08-25T15:34:28.927Z,100463.31
2022-08-25T15:37:07.135Z,100467.84
2022-08-25T15:39:35.904Z,100464.78
2022-08-25T15:42:05.361Z,100453.38
2022-08-25T15:44:33.896Z,100460.81
2022-08-25T15:47:04.167Z,100456.50
2022-08-25T15:49:33.550Z,100450.88
2022-08-25T15:52:01.595Z,100453.63
2022-08-25T15:54:31.402Z,100446.06
2022-08-25T15:56:59.843Z,100445.56
2022-08-25T15:59:28.384Z,100448.94
2022-08-25T16:01:56.905Z,100448.66
2022-08-25T16:04:27.704Z,100448.69
2022-08-25T16:06:56.008Z,100449.59
2022-08-25T16:09:24.136Z,100453.88
2022-08-25T16:11:56.094Z,100452.56
2022-08-25T16:14:26.218Z,100448.56
2022-08-25T16:16:58.227Z,100448.56
2022-08-25T16:19:27.870Z,100449.56
2022-08-25T16:21:56.340Z,100448.63
2022-08-25T16:24:24.308Z,100453.50
2022-08-25T16:26:52.617Z,100447.81
2022-08-25T16:29:23.462Z,100453.06
2022-08-25T16:31:53.309Z,100451.91
2022-08-25T16:34:24.409Z,100439.59
2022-08-25T16:36:53.922Z,100449.72
2022-08-25T16:39:22.458Z,100438.63
2022-08-25T16:41:52.598Z,100439.28
2022-08-25T16:44:22.629Z,100441.66
2022-08-25T16:46:54.317Z,100446.38
2022-08-25T16:49:24.356Z,100449.75
2022-08-25T16:51:56.654Z,100450.72
2022-08-25T16:54:45.291Z,100456.09
2022-08-25T16:57:13.571Z,100448.50
2022-08-25T16:59:42.595Z,100456.72
2022-08-25T17:02:12.139Z,100457.66
2022-08-25T17:04:40.783Z,100451.25
2022-08-25T17:07:08.972Z,100450.72
2022-08-25T17:09:37.200Z,100459.53
2022-08-25T17:12:05.094Z,100452.78
2022-08-25T17:14:33.845Z,100460.09
2022-08-25T17:17:02.553Z,100464.69
2022-08-25T17:19:31.998Z,100454.91
2022-08-25T17:22:00.033Z,100455.84
2022-08-25T17:24:29.373Z,100460.81
2022-08-25T17:27:00.173Z,100457.81
2022-08-25T17:29:29.735Z,100455.22
2022-08-25T17:31:58.601Z,100456.97
2022-08-25T17:34:29.090Z,100455.50
2022-08-25T17:36:58.543Z,100457.19
2022-08-25T17:39:27.607Z,100466.06
2022-08-25T17:41:56.487Z,100460.13
2022-08-25T17:44:24.569Z,100460.31
2022-08-25T17:46:52.670Z,100467.13
2022-08-25T17:49:20.383Z,100464.91
2022-08-25T17:51:48.648Z,100472.28
2022-08-25T17:54:17.259Z,100480.78
2022-08-25T17:56:44.984Z,100476.09
2022-08-25T17:59:13.874Z,100482.41
2022-08-25T18:01:42.066Z,100475.94
2022-08-25T18:04:17.382Z,100478.44
2022-08-25T18:06:48.431Z,100481.34
2022-08-25T18:09:17.542Z,100487.25
2022-08-25T18:11:46.224Z,100484.84
2022-08-25T18:14:16.540Z,100485.91
2022-08-25T18:16:45.212Z,100487.69
2022-08-25T18:19:14.457Z,100485.25
2022-08-25T18:21:43.345Z,100481.69
2022-08-25T18:24:11.902Z,100481.19
2022-08-25T18:26:41.679Z,100481.22
2022-08-25T18:29:13.070Z,100486.41
2022-08-25T18:31:42.437Z,100486.44
2022-08-25T18:34:11.592Z,100491.31
2022-08-25T18:36:40.415Z,100493.97
2022-08-25T18:39:30.455Z,100491.84
2022-08-25T18:42:01.699Z,100482.31
2022-08-25T18:44:29.801Z,100491.50
2022-08-25T18:46:57.998Z,100495.38
2022-08-25T18:49:26.748Z,100495.03
2022-08-25T18:51:56.382Z,100494.69
2022-08-25T18:54:24.184Z,100497.59
2022-08-25T18:56:53.957Z,100498.56
2022-08-25T18:59:23.539Z,100497.16
2022-08-25T19:01:53.906Z,100502.63
2022-08-25T19:04:28.335Z,100496.69
2022-08-25T19:07:00.367Z,100492.69
2022-08-25T19:09:28.598Z,100500.47
2022-08-25T19:11:57.309Z,100496.72
2022-08-25T19:14:26.310Z,100505.09
2022-08-25T19:16:54.966Z,100503.75
2022-08-25T19:19:24.193Z,100504.94
2022-08-25T19:21:52.109Z,100500.56
2022-08-25T19:24:20.034Z,100497.66
2022-08-25T19:26:53.806Z,100493.88
2022-08-25T19:29:23.391Z,100504.19
2022-08-25T19:31:52.060Z,100498.34
2022-08-25T19:34:28.011Z,100498.34
2022-08-25T19:37:01.408Z,100492.81
2022-08-25T19:39:30.678Z,100497.25
2022-08-25T19:41:58.657Z,100494.72
2022-08-25T19:44:28.067Z,100491.28
2022-08-25T19:46:56.391Z,100498.28
2022-08-25T19:49:34.326Z,100493.19
2022-08-25T19:52:10.662Z,100491.72
2022-08-25T19:54:45.773Z,100475.34
2022-08-25T19:57:28.467Z,100480.28
2022-08-25T20:00:06.763Z,100480.25
2022-08-25T20:02:40.463Z,100484.81
2022-08-25T20:05:08.374Z,100486.53
2022-08-25T20:07:36.354Z,100489.88
2022-08-25T20:10:08.334Z,100479.22
2022-08-25T20:12:44.697Z,100488.03
2022-08-25T20:15:14.587Z,100486.84
2022-08-25T20:17:45.162Z,100491.75
2022-08-25T20:20:16.493Z,100486.88
2022-08-25T20:22:44.543Z,100486.88
2022-08-25T20:25:16.437Z,100486.25
2022-08-25T20:27:48.603Z,100490.00
2022-08-25T20:30:29.453Z,100494.78
2022-08-25T20:32:58.165Z,100490.75
2022-08-25T20:35:28.206Z,100498.09
2022-08-25T20:37:58.307Z,100488.44
2022-08-25T20:40:28.640Z,100498.03
2022-08-25T20:43:04.377Z,100500.91
2022-08-25T20:45:32.306Z,100504.00
2022-08-25T20:48:00.319Z,100502.31
2022-08-25T20:50:28.714Z,100497.00
2022-08-25T20:52:58.694Z,100493.94
2022-08-25T20:55:27.785Z,100495.84
2022-08-25T20:57:56.142Z,100492.91
2022-08-25T21:00:24.986Z,100492.16
2022-08-25T21:02:53.404Z,100488.75
2022-08-25T21:05:21.494Z,100491.41
2022-08-25T21:07:49.402Z,100487.06
2022-08-25T21:10:17.263Z,100481.13
2022-08-25T21:12:45.272Z,100495.56
2022-08-25T21:15:18.041Z,100492.69
2022-08-25T21:17:50.592Z,100489.50
2022-08-25T21:20:18.693Z,100494.38
2022-08-25T21:22:46.430Z,100495.13
2022-08-25T21:25:14.627Z,100495.13
2022-08-25T21:27:43.457Z,100486.53
2022-08-25T21:30:12.209Z,100492.56
2022-08-25T21:32:39.874Z,100488.75
2022-08-25T21:35:22.689Z,100490.66
2022-08-25T21:37:53.371Z,100488.44
2022-08-25T21:40:22.776Z,100493.00
2022-08-25T21:42:51.978Z,100486.19
2022-08-25T21:45:20.933Z,100490.13
2022-08-25T21:47:50.071Z,100491.91
2022-08-25T21:50:19.828Z,100490.22
2022-08-25T21:52:47.529Z,100490.75
2022-08-25T21:55:23.150Z,100487.16
2022-08-25T21:57:51.421Z,100484.50
2022-08-25T22:00:19.310Z,100488.31
2022-08-25T22:02:49.634Z,100481.50
2022-08-25T22:05:17.332Z,100487.47
2022-08-25T22:07:45.119Z,100491.28
2022-08-25T22:10:17.783Z,100478.31
2022-08-25T22:12:48.657Z,100488.72
2022-08-25T22:15:18.077Z,100485.66
2022-08-25T22:17:47.896Z,100479.72
2022-08-25T22:20:17.522Z,100474.16
2022-08-25T22:22:45.390Z,100476.28
2022-08-25T22:25:13.888Z,100477.97
2022-08-25T22:27:42.443Z,100480.75
2022-08-25T22:30:10.964Z,100476.19
2022-08-25T22:32:38.616Z,100473.09
2022-08-25T22:35:07.142Z,100468.94
2022-08-25T22:37:36.189Z,100472.75
2022-08-25T22:40:05.254Z,100467.44
2022-08-25T22:42:33.011Z,100461.19
2022-08-25T22:45:01.237Z,100462.78
2022-08-25T22:47:29.058Z,100460.84
2022-08-25T22:49:58.794Z,100456.78
2022-08-25T22:52:33.321Z,100448.69
2022-08-25T22:55:02.812Z,100454.41
2022-08-25T22:57:30.773Z,100446.03
2022-08-25T22:59:59.303Z,100449.53
2022-08-25T23:02:27.689Z,100444.59
2022-08-25T23:05:00.833Z,100442.03
2022-08-25T23:07:29.122Z,100441.59
2022-08-25T23:09:58.727Z,100441.78
2022-08-25T23:12:26.623Z,100451.84
2022-08-25T23:14:54.617Z,100439.53
2022-08-25T23:17:22.547Z,100444.28
2022-08-25T23:19:50.456Z,100435.97
2022-08-25T23:22:18.264Z,100439.97
2022-08-25T23:24:52.089Z,100434.03
2022-08-25T23:27:22.180Z,100435.72
2022-08-25T23:29:50.565Z,100435.53
2022-08-25T23:32:18.853Z,100434.13
2022-08-25T23:34:47.399Z,100440.38
2022-08-25T23:37:18.473Z,100439.25
2022-08-25T23:39:49.864Z,100448.25
2022-08-25T23:42:20.096Z,100443.41
2022-08-25T23:44:49.369Z,100441.72
2022-08-25T23:47:17.763Z,100445.31
2022-08-25T23:49:48.028Z,100446.25
2022-08-25T23:52:17.444Z,100447.94
2022-08-25T23:54:46.465Z,100444.75
2022-08-25T23:57:14.848Z,100444.19
2022-08-25T23:59:43.343Z,100435.09
